Terminal Aerodrome Forecast
Issued by NWS

Current Version | Previous Version | Graphics & Text | Print | Product List | Glossary On
Versions: 1 2 3 4 5 6 7 8 9 10 11 12 13 14 15 16 17 18 19 20 21 22 23 24 25
000
FTUS41 KRLX 222337
TAFCKB
TAF
KCKB 222337Z 2300/2324 21004KT P6SM BKN250
     FM230300 21007KT P6SM SHRA OVC040
      TEMPO 2303/2307 4SM SHRA OVC020
     FM230700 20007KT P6SM OVC025
     FM231100 21008KT P6SM OVC020
     FM231500 22010G16KT 6SM SHRA OVC030
     FM231900 22012G18KT 6SM SHRA VCTS BKN030CB=

USA.gov is the U.S. government's official web portal to all federal, state and local government web resources and services.